createdAt,value
2022-11-09T00:00:53.409Z,83
2022-11-09T00:02:00.543Z,83
2022-11-09T00:03:07.686Z,83
2022-11-09T00:04:14.297Z,82
2022-11-09T00:05:21.334Z,83
2022-11-09T00:06:28.525Z,83
2022-11-09T00:07:35.659Z,83
2022-11-09T00:08:42.777Z,83
2022-11-09T00:09:49.336Z,83
2022-11-09T00:10:56.353Z,83
2022-11-09T00:12:03.415Z,83
2022-11-09T00:13:10.577Z,83
2022-11-09T00:14:17.807Z,83
2022-11-09T00:15:24.294Z,83
2022-11-09T00:17:37.983Z,83
2022-11-09T00:18:45.684Z,83
2022-11-09T00:19:52.767Z,83
2022-11-09T00:20:59.309Z,83
2022-11-09T00:22:06.359Z,83
2022-11-09T00:23:13.494Z,83
2022-11-09T00:24:20.602Z,83
2022-11-09T00:25:27.789Z,83
2022-11-09T00:26:34.323Z,83
2022-11-09T00:27:41.403Z,84
2022-11-09T00:28:48.515Z,84
2022-11-09T00:31:02.707Z,84
2022-11-09T00:32:09.271Z,84
2022-11-09T00:33:16.880Z,84
2022-11-09T00:34:23.896Z,84
2022-11-09T00:35:30.558Z,84
2022-11-09T00:36:37.203Z,84
2022-11-09T00:37:44.390Z,84
2022-11-09T00:38:51.350Z,84
2022-11-09T00:39:58.538Z,84
2022-11-09T00:41:05.674Z,84
2022-11-09T00:42:12.207Z,84
2022-11-09T00:43:19.506Z,84
2022-11-09T00:44:26.490Z,84
2022-11-09T00:46:40.623Z,84
2022-11-09T00:47:47.208Z,84
2022-11-09T00:48:54.352Z,84
2022-11-09T00:50:01.439Z,84
2022-11-09T00:51:08.620Z,84
2022-11-09T00:52:15.652Z,84
2022-11-09T00:53:22.508Z,84
2022-11-09T00:54:29.362Z,84
2022-11-09T00:55:36.465Z,85
2022-11-09T00:56:43.526Z,85
2022-11-09T00:57:50.625Z,85
2022-11-09T01:00:04.372Z,84
2022-11-09T01:01:11.571Z,84
2022-11-09T01:02:18.542Z,84
2022-11-09T01:03:25.674Z,84
2022-11-09T01:04:32.225Z,84
2022-11-09T01:05:39.418Z,84
2022-11-09T01:06:46.524Z,84
2022-11-09T01:07:53.502Z,85
2022-11-09T01:09:00.650Z,84
2022-11-09T01:10:07.309Z,84
2022-11-09T01:12:21.478Z,85
2022-11-09T01:14:35.674Z,84
2022-11-09T01:15:42.246Z,84
2022-11-09T01:16:49.416Z,84
2022-11-09T01:17:56.503Z,84
2022-11-09T01:19:03.547Z,84
2022-11-09T01:20:10.664Z,84
2022-11-09T01:21:17.392Z,84
2022-11-09T01:22:24.361Z,84
2022-11-09T01:23:31.460Z,84
2022-11-09T01:24:38.581Z,84
2022-11-09T01:25:45.710Z,84
2022-11-09T01:26:52.313Z,84
2022-11-09T01:27:59.355Z,84
2022-11-09T01:29:06.494Z,84
2022-11-09T01:30:13.582Z,84
2022-11-09T01:31:20.695Z,84
2022-11-09T01:32:27.348Z,84
2022-11-09T01:33:34.422Z,84
2022-11-09T01:34:41.487Z,84
2022-11-09T01:35:48.610Z,84
2022-11-09T01:36:55.748Z,84
2022-11-09T01:38:02.233Z,84
2022-11-09T01:39:09.420Z,84
2022-11-09T01:40:16.525Z,84
2022-11-09T01:41:23.564Z,84
2022-11-09T01:42:30.673Z,84
2022-11-09T01:43:37.313Z,84
2022-11-09T01:45:51.570Z,84
2022-11-09T01:46:58.557Z,84
2022-11-09T01:48:05.237Z,84
2022-11-09T01:49:12.283Z,84
2022-11-09T01:50:19.412Z,84
2022-11-09T01:51:26.557Z,84
2022-11-09T01:53:40.226Z,84
2022-11-09T01:54:47.315Z,84
2022-11-09T01:55:54.475Z,84
2022-11-09T01:57:01.495Z,84
2022-11-09T01:58:08.626Z,84
2022-11-09T01:59:15.194Z,84
2022-11-09T02:00:22.266Z,84
2022-11-09T02:01:29.565Z,83
2022-11-09T02:03:43.606Z,83
2022-11-09T02:04:50.736Z,83
2022-11-09T02:05:57.407Z,83
2022-11-09T02:07:04.520Z,83
2022-11-09T02:08:11.518Z,83
2022-11-09T02:09:18.689Z,83
2022-11-09T02:10:25.244Z,83
2022-11-09T02:11:32.374Z,83
2022-11-09T02:13:46.562Z,83
2022-11-09T02:14:53.652Z,83
2022-11-09T02:16:00.265Z,83
2022-11-09T02:17:07.346Z,83
2022-11-09T02:18:14.476Z,83
2022-11-09T02:19:21.532Z,83
2022-11-09T02:20:28.800Z,83
2022-11-09T02:21:35.274Z,83
2022-11-09T02:22:42.295Z,83
2022-11-09T02:23:49.447Z,83
2022-11-09T02:24:56.760Z,84
2022-11-09T02:26:03.614Z,84
2022-11-09T02:27:10.282Z,84
2022-11-09T02:28:17.374Z,84
2022-11-09T02:29:24.480Z,84
2022-11-09T02:30:31.509Z,84
2022-11-09T02:31:38.772Z,84
2022-11-09T02:32:45.711Z,84
2022-11-09T02:34:59.468Z,83
2022-11-09T02:36:06.576Z,83
2022-11-09T02:37:13.675Z,83
2022-11-09T02:38:20.247Z,83
2022-11-09T02:39:27.404Z,83
2022-11-09T02:41:41.653Z,83
2022-11-09T02:42:48.726Z,83
2022-11-09T02:43:55.296Z,83
2022-11-09T02:45:02.352Z,83
2022-11-09T02:46:09.612Z,83
2022-11-09T02:47:16.602Z,83
2022-11-09T02:48:23.683Z,83
2022-11-09T02:49:30.282Z,83
2022-11-09T02:50:37.368Z,83
2022-11-09T02:51:44.506Z,83
2022-11-09T02:52:51.600Z,83
2022-11-09T02:53:58.713Z,83
2022-11-09T02:55:05.304Z,83
2022-11-09T02:56:12.462Z,83
2022-11-09T02:57:19.674Z,83
2022-11-09T02:58:26.615Z,83
2022-11-09T02:59:33.663Z,83
2022-11-09T03:00:40.240Z,84
2022-11-09T03:01:47.394Z,84
2022-11-09T03:02:54.497Z,84
2022-11-09T03:04:01.559Z,84
2022-11-09T03:05:08.755Z,84
2022-11-09T03:07:22.427Z,84
2022-11-09T03:08:29.538Z,84
2022-11-09T03:09:36.593Z,84
2022-11-09T03:10:43.189Z,84
2022-11-09T03:11:50.269Z,85
2022-11-09T03:14:04.556Z,85
2022-11-09T03:16:18.773Z,85
2022-11-09T03:17:25.333Z,85
2022-11-09T03:18:32.415Z,85
2022-11-09T03:19:39.536Z,85
2022-11-09T03:20:46.617Z,85
2022-11-09T03:21:53.241Z,85
2022-11-09T03:23:00.492Z,85
2022-11-09T03:24:07.453Z,85
2022-11-09T03:25:14.544Z,85
2022-11-09T03:26:21.701Z,86
2022-11-09T03:27:28.267Z,86
2022-11-09T03:28:35.350Z,86
2022-11-09T03:29:42.423Z,86
2022-11-09T03:30:49.521Z,86
2022-11-09T03:31:56.737Z,86
2022-11-09T03:33:03.237Z,86
2022-11-09T03:34:10.344Z,86
2022-11-09T03:35:17.468Z,86
2022-11-09T03:36:24.570Z,86
2022-11-09T03:37:31.691Z,86
2022-11-09T03:38:38.274Z,87
2022-11-09T03:39:45.371Z,87
2022-11-09T03:40:52.399Z,87
2022-11-09T03:41:59.590Z,87
2022-11-09T03:43:07.220Z,87
2022-11-09T03:44:13.197Z,87
2022-11-09T03:45:20.296Z,87
2022-11-09T03:46:27.485Z,87
2022-11-09T03:47:34.581Z,87
2022-11-09T03:48:41.653Z,87
2022-11-09T03:49:49.335Z,87
2022-11-09T03:50:55.383Z,87
2022-11-09T03:52:02.520Z,87
2022-11-09T03:53:09.578Z,87
2022-11-09T03:54:16.691Z,88
2022-11-09T03:55:23.245Z,88
2022-11-09T03:57:37.500Z,88
2022-11-09T03:58:44.587Z,88
2022-11-09T03:59:51.682Z,89
2022-11-09T04:00:58.285Z,89
2022-11-09T04:02:05.487Z,89
2022-11-09T04:03:12.513Z,89
2022-11-09T04:04:19.564Z,89
2022-11-09T04:05:26.687Z,89
2022-11-09T04:06:33.387Z,89
2022-11-09T04:07:40.387Z,90
2022-11-09T04:08:51.313Z,90
2022-11-09T04:12:08.338Z,90
2022-11-09T04:13:15.458Z,90
2022-11-09T04:14:22.476Z,90
2022-11-09T04:15:29.609Z,91
2022-11-09T04:16:36.773Z,91
2022-11-09T04:17:43.331Z,91
2022-11-09T04:18:50.396Z,91
2022-11-09T04:19:57.525Z,91
2022-11-09T04:21:04.633Z,91
2022-11-09T04:22:11.777Z,91
2022-11-09T04:23:18.737Z,91
2022-11-09T04:24:25.423Z,91
2022-11-09T04:25:32.462Z,91
2022-11-09T04:26:39.645Z,91
2022-11-09T04:27:46.735Z,91
2022-11-09T04:28:53.308Z,91
2022-11-09T04:30:00.420Z,91
2022-11-09T04:31:07.648Z,91
2022-11-09T04:32:14.643Z,91
2022-11-09T04:33:21.480Z,92
2022-11-09T04:34:28.364Z,92
2022-11-09T04:35:35.451Z,92
2022-11-09T04:36:42.531Z,92
2022-11-09T04:38:56.756Z,92
2022-11-09T04:40:03.318Z,92
2022-11-09T04:42:17.599Z,92
2022-11-09T04:43:24.673Z,92
2022-11-09T04:44:31.185Z,92
2022-11-09T04:45:38.357Z,92
2022-11-09T04:46:45.411Z,92
2022-11-09T04:47:52.501Z,92
2022-11-09T04:48:59.684Z,93
2022-11-09T04:50:06.271Z,93
2022-11-09T04:51:13.356Z,93
2022-11-09T04:52:20.445Z,93
2022-11-09T04:53:27.543Z,94
2022-11-09T04:54:34.673Z,94
2022-11-09T04:55:41.190Z,94
2022-11-09T04:56:48.346Z,94
2022-11-09T04:57:55.487Z,94
2022-11-09T04:59:02.557Z,94
2022-11-09T05:00:09.680Z,93
2022-11-09T05:01:16.348Z,94
2022-11-09T05:02:23.336Z,94
2022-11-09T05:03:30.477Z,94
2022-11-09T05:04:37.581Z,94
2022-11-09T05:05:48.297Z,95
2022-11-09T05:07:58.408Z,95
2022-11-09T05:09:05.481Z,96
2022-11-09T05:10:12.608Z,95
2022-11-09T05:11:19.201Z,95
2022-11-09T05:12:26.323Z,95
2022-11-09T05:14:40.463Z,96
2022-11-09T05:15:47.600Z,96
2022-11-09T05:16:54.765Z,96
2022-11-09T05:18:02.312Z,96
2022-11-09T05:20:15.501Z,96
2022-11-09T05:21:22.594Z,96
2022-11-09T05:22:29.666Z,96
2022-11-09T05:23:36.271Z,96
2022-11-09T05:24:43.369Z,96
2022-11-09T05:25:50.477Z,97
2022-11-09T05:26:57.627Z,97
2022-11-09T05:28:04.761Z,97
2022-11-09T05:29:11.287Z,97
2022-11-09T05:30:18.397Z,97
2022-11-09T05:31:25.541Z,97
2022-11-09T05:32:32.645Z,98
2022-11-09T05:33:39.297Z,98
2022-11-09T05:35:53.413Z,98
2022-11-09T05:37:03.467Z,98
2022-11-09T05:38:07.606Z,98
2022-11-09T05:39:14.186Z,98
2022-11-09T05:40:21.287Z,98
2022-11-09T05:41:28.455Z,98
2022-11-09T05:42:35.497Z,98
2022-11-09T05:43:42.621Z,98
2022-11-09T05:44:49.194Z,98
2022-11-09T05:45:56.464Z,98
2022-11-09T05:47:03.453Z,98
2022-11-09T05:48:10.552Z,98
2022-11-09T05:49:17.645Z,98
2022-11-09T05:50:24.252Z,98
2022-11-09T05:51:31.375Z,98
2022-11-09T05:52:38.459Z,98
2022-11-09T05:53:47.034Z,98
2022-11-09T05:54:52.618Z,98
2022-11-09T05:55:59.271Z,98
2022-11-09T05:57:06.398Z,98
2022-11-09T05:58:13.421Z,98
2022-11-09T05:59:20.556Z,98
2022-11-09T06:01:34.314Z,98
2022-11-09T06:02:41.295Z,98
2022-11-09T06:03:48.482Z,98
2022-11-09T06:04:55.519Z,98
2022-11-09T06:06:07.816Z,98
2022-11-09T06:07:09.315Z,98
2022-11-09T06:08:16.317Z,98
2022-11-09T06:10:30.557Z,98
2022-11-09T06:11:37.697Z,98
2022-11-09T06:12:45.807Z,98
2022-11-09T06:13:51.302Z,98
2022-11-09T06:14:58.495Z,98
2022-11-09T06:16:05.537Z,98
2022-11-09T06:18:20.270Z,98
2022-11-09T06:19:26.389Z,98
2022-11-09T06:20:33.461Z,98
2022-11-09T06:21:40.521Z,98
2022-11-09T06:22:47.644Z,98
2022-11-09T06:23:54.292Z,98
2022-11-09T06:25:01.348Z,98
2022-11-09T06:26:08.496Z,98
2022-11-09T06:27:15.647Z,98
2022-11-09T06:28:22.701Z,98
2022-11-09T06:29:29.278Z,98
2022-11-09T06:30:36.365Z,98
2022-11-09T06:31:43.428Z,98
2022-11-09T06:32:50.578Z,98
2022-11-09T06:33:57.690Z,98
2022-11-09T06:35:04.312Z,98
2022-11-09T06:36:11.395Z,98
2022-11-09T06:37:18.554Z,98
2022-11-09T06:38:25.614Z,98
2022-11-09T06:39:32.642Z,98
2022-11-09T06:40:39.342Z,98
2022-11-09T06:42:53.582Z,98
2022-11-09T06:44:00.588Z,98
2022-11-09T06:45:07.701Z,98
2022-11-09T06:46:15.350Z,98
2022-11-09T06:47:21.427Z,98
2022-11-09T06:48:28.520Z,98
2022-11-09T06:49:35.626Z,98
2022-11-09T06:50:42.166Z,98
2022-11-09T06:51:49.340Z,98
2022-11-09T06:52:56.418Z,98
2022-11-09T06:54:03.458Z,98
2022-11-09T06:55:10.614Z,98
2022-11-09T06:56:17.307Z,98
2022-11-09T06:57:24.320Z,98
2022-11-09T06:58:31.359Z,98
2022-11-09T06:59:39.597Z,98
2022-11-09T07:00:45.636Z,98
2022-11-09T07:01:52.325Z,98
2022-11-09T07:02:59.334Z,98
2022-11-09T07:04:06.449Z,98
2022-11-09T07:05:14.055Z,98
2022-11-09T07:06:20.575Z,98
2022-11-09T07:07:28.371Z,98
2022-11-09T07:08:34.336Z,98
2022-11-09T07:09:41.415Z,98
2022-11-09T07:10:48.551Z,98
2022-11-09T07:11:55.674Z,98
2022-11-09T07:13:02.214Z,98
2022-11-09T07:14:09.354Z,98
2022-11-09T07:15:16.446Z,98
2022-11-09T07:16:23.527Z,98
2022-11-09T07:17:30.623Z,98
2022-11-09T07:18:37.212Z,98
2022-11-09T07:19:44.330Z,98
2022-11-09T07:21:58.581Z,98
2022-11-09T07:24:12.188Z,98
2022-11-09T07:25:19.364Z,98
2022-11-09T07:26:26.637Z,98
2022-11-09T07:27:33.536Z,98
2022-11-09T07:28:40.644Z,98
2022-11-09T07:29:47.274Z,98
2022-11-09T07:30:54.336Z,98
2022-11-09T07:32:01.463Z,98
2022-11-09T07:33:10.251Z,98
2022-11-09T07:34:15.665Z,98
2022-11-09T07:35:22.247Z,98
2022-11-09T07:36:29.363Z,98
2022-11-09T07:38:43.552Z,98
2022-11-09T07:39:50.697Z,98
2022-11-09T07:40:57.233Z,98
2022-11-09T07:42:04.351Z,98
2022-11-09T07:43:11.465Z,98
2022-11-09T07:44:18.564Z,98
2022-11-09T07:45:25.698Z,98
2022-11-09T07:46:32.308Z,98
2022-11-09T07:47:39.355Z,98
2022-11-09T07:48:46.486Z,98
2022-11-09T07:49:53.541Z,98
2022-11-09T07:51:00.636Z,98
2022-11-09T07:52:07.259Z,98
2022-11-09T07:53:14.444Z,98
2022-11-09T07:55:28.601Z,98
2022-11-09T07:56:35.296Z,98
2022-11-09T07:57:42.233Z,98
2022-11-09T07:58:49.351Z,98
2022-11-09T07:59:56.543Z,98
2022-11-09T08:01:03.575Z,98
2022-11-09T08:02:10.261Z,98
2022-11-09T08:03:17.668Z,98
2022-11-09T08:05:31.464Z,98
2022-11-09T08:06:38.888Z,98
2022-11-09T08:07:45.201Z,98
2022-11-09T08:08:52.304Z,98
2022-11-09T08:09:59.436Z,98
2022-11-09T08:11:06.560Z,98
2022-11-09T08:12:13.653Z,98
2022-11-09T08:13:20.696Z,98
2022-11-09T08:14:27.869Z,98
2022-11-09T08:15:34.516Z,98
2022-11-09T08:16:41.533Z,98
2022-11-09T08:17:48.712Z,98
2022-11-09T08:18:55.255Z,98
2022-11-09T08:20:02.324Z,98
2022-11-09T08:21:09.371Z,98
2022-11-09T08:23:23.655Z,98
2022-11-09T08:25:37.355Z,98
2022-11-09T08:26:44.469Z,98
2022-11-09T08:27:51.533Z,98
2022-11-09T08:28:58.616Z,98
2022-11-09T08:30:05.310Z,98
2022-11-09T08:31:12.497Z,98
2022-11-09T08:32:19.542Z,98
2022-11-09T08:33:26.747Z,98
2022-11-09T08:34:33.654Z,98
2022-11-09T08:35:40.226Z,98
2022-11-09T08:36:47.473Z,98
2022-11-09T08:37:54.491Z,98
2022-11-09T08:39:01.490Z,98
2022-11-09T08:40:08.677Z,98
2022-11-09T08:41:15.308Z,98
2022-11-09T08:42:22.723Z,98
2022-11-09T08:43:29.738Z,98
2022-11-09T08:44:36.731Z,98
2022-11-09T08:46:50.287Z,98
2022-11-09T08:47:57.327Z,98
2022-11-09T08:49:04.424Z,98
2022-11-09T08:50:11.586Z,98
2022-11-09T08:51:18.657Z,98
2022-11-09T08:52:25.294Z,98
2022-11-09T08:53:32.373Z,98
2022-11-09T08:54:39.605Z,98
2022-11-09T08:55:49.464Z,98
2022-11-09T08:56:53.144Z,98
2022-11-09T08:58:00.279Z,98
2022-11-09T08:59:07.428Z,98
2022-11-09T09:00:14.492Z,98
2022-11-09T09:01:21.665Z,98
2022-11-09T09:02:28.201Z,98
2022-11-09T09:03:36.299Z,98
2022-11-09T09:04:42.456Z,98
2022-11-09T09:06:56.772Z,98
2022-11-09T09:08:03.134Z,98
2022-11-09T09:09:10.229Z,98
2022-11-09T09:10:17.456Z,98
2022-11-09T09:11:24.503Z,98
2022-11-09T09:12:31.652Z,98
2022-11-09T09:13:43.120Z,98
2022-11-09T09:14:45.303Z,98
2022-11-09T09:15:52.383Z,98
2022-11-09T09:16:59.473Z,98
2022-11-09T09:18:06.581Z,98
2022-11-09T09:19:13.126Z,98
2022-11-09T09:20:20.280Z,98
2022-11-09T09:21:27.412Z,98
2022-11-09T09:23:41.655Z,98
2022-11-09T09:24:48.207Z,98
2022-11-09T09:25:58.693Z,98
2022-11-09T09:29:16.607Z,98
2022-11-09T09:30:23.145Z,98
2022-11-09T09:31:30.441Z,98
2022-11-09T09:32:37.413Z,98
2022-11-09T09:33:44.545Z,98
2022-11-09T09:34:51.617Z,98
2022-11-09T09:35:58.223Z,98
2022-11-09T09:37:05.365Z,98
2022-11-09T09:38:12.423Z,98
2022-11-09T09:39:19.539Z,98
2022-11-09T09:40:26.655Z,98
2022-11-09T09:41:33.159Z,98
2022-11-09T09:42:40.894Z,98
2022-11-09T09:43:47.404Z,98
2022-11-09T09:44:54.557Z,98
2022-11-09T09:46:01.646Z,98
2022-11-09T09:47:08.283Z,98
2022-11-09T09:48:15.300Z,98
2022-11-09T09:49:22.386Z,98
2022-11-09T09:50:30.115Z,98
2022-11-09T09:51:36.154Z,98
2022-11-09T09:53:04.661Z,98
2022-11-09T09:53:50.336Z,98
2022-11-09T09:54:57.470Z,98
2022-11-09T09:56:04.562Z,98
2022-11-09T09:57:11.181Z,98
2022-11-09T09:58:18.661Z,98
2022-11-09T09:59:25.336Z,98
2022-11-09T10:00:32.426Z,98
2022-11-09T10:01:39.577Z,98
2022-11-09T10:02:46.744Z,98
2022-11-09T10:03:53.248Z,98
2022-11-09T10:05:00.464Z,98
2022-11-09T10:06:07.470Z,98
2022-11-09T10:07:14.703Z,98
2022-11-09T10:09:28.297Z,98
2022-11-09T10:10:35.372Z,98
2022-11-09T10:11:42.453Z,97
2022-11-09T10:12:49.622Z,97
2022-11-09T10:13:56.144Z,98
2022-11-09T10:15:03.306Z,98
2022-11-09T10:16:10.310Z,98
2022-11-09T10:17:17.445Z,98
2022-11-09T10:18:25.118Z,98
2022-11-09T10:19:31.159Z,98
2022-11-09T10:20:38.299Z,98
2022-11-09T10:21:45.350Z,98
2022-11-09T10:22:52.550Z,98
2022-11-09T10:23:59.601Z,97
2022-11-09T10:25:37.681Z,97
2022-11-09T10:26:15.727Z,97
2022-11-09T10:27:20.337Z,97
2022-11-09T10:28:27.512Z,98
2022-11-09T10:29:34.561Z,98
2022-11-09T10:30:41.128Z,98
2022-11-09T10:32:55.468Z,98
2022-11-09T10:35:09.622Z,98
2022-11-09T10:36:16.185Z,98
2022-11-09T10:37:23.358Z,98
2022-11-09T10:38:30.341Z,98
2022-11-09T10:39:37.526Z,98
2022-11-09T10:40:44.639Z,98
2022-11-09T10:41:51.195Z,98
2022-11-09T10:42:58.343Z,98
2022-11-09T10:44:05.440Z,98
2022-11-09T10:45:12.497Z,98
2022-11-09T10:47:26.292Z,98
2022-11-09T10:48:33.316Z,98
2022-11-09T10:50:47.552Z,98
2022-11-09T10:51:54.633Z,97
2022-11-09T10:53:01.274Z,97
2022-11-09T10:54:08.301Z,97
2022-11-09T10:55:15.403Z,97
2022-11-09T10:56:22.487Z,97
2022-11-09T10:57:29.708Z,97
2022-11-09T10:58:36.183Z,97
2022-11-09T10:59:43.321Z,98
2022-11-09T11:00:50.376Z,98
2022-11-09T11:02:02.102Z,97
2022-11-09T11:03:04.163Z,98
2022-11-09T11:04:11.165Z,97
2022-11-09T11:05:18.308Z,98
2022-11-09T11:06:25.409Z,97
2022-11-09T11:07:33.056Z,97
2022-11-09T11:08:39.175Z,97
2022-11-09T11:09:46.270Z,97
2022-11-09T11:11:06.594Z,97
2022-11-09T11:12:00.508Z,97
2022-11-09T11:13:07.536Z,97
2022-11-09T11:15:21.252Z,97
2022-11-09T11:16:28.337Z,97
2022-11-09T11:17:35.491Z,97
2022-11-09T11:18:42.611Z,97
2022-11-09T11:19:49.114Z,97
2022-11-09T11:20:56.226Z,97
2022-11-09T11:22:03.415Z,97
2022-11-09T11:23:10.405Z,97
2022-11-09T11:24:17.630Z,97
2022-11-09T11:25:24.172Z,97
2022-11-09T11:26:31.193Z,97
2022-11-09T11:27:38.384Z,97
2022-11-09T11:28:45.484Z,97
2022-11-09T11:29:52.593Z,97
2022-11-09T11:30:59.170Z,97
2022-11-09T11:32:06.290Z,97
2022-11-09T11:33:13.354Z,97
2022-11-09T11:34:45.655Z,97
2022-11-09T11:36:34.186Z,97
2022-11-09T11:37:41.306Z,97
2022-11-09T11:38:48.371Z,94
2022-11-09T11:39:56.800Z,94
2022-11-09T11:41:02.590Z,94
2022-11-09T11:42:09.267Z,94
2022-11-09T11:43:16.275Z,94
2022-11-09T11:44:23.364Z,93
2022-11-09T11:45:40.117Z,94
2022-11-09T11:46:37.570Z,94
2022-11-09T11:47:44.258Z,94
2022-11-09T11:48:51.261Z,94
2022-11-09T11:49:58.381Z,94
2022-11-09T11:51:05.639Z,94
2022-11-09T11:52:12.627Z,94
2022-11-09T11:53:19.603Z,94
2022-11-09T11:54:26.348Z,93
2022-11-09T11:55:33.408Z,93
2022-11-09T11:56:40.525Z,93
2022-11-09T11:57:47.612Z,93
2022-11-09T11:58:54.167Z,93
2022-11-09T12:00:01.283Z,93
2022-11-09T12:01:08.449Z,93
2022-11-09T12:03:22.980Z,92
2022-11-09T12:04:32.107Z,92
2022-11-09T12:05:36.405Z,92
2022-11-09T12:06:44.335Z,92
2022-11-09T12:07:56.089Z,92
2022-11-09T12:08:57.592Z,92
2022-11-09T12:10:04.204Z,92
2022-11-09T12:11:11.311Z,91
2022-11-09T12:12:18.515Z,91
2022-11-09T12:13:25.557Z,91
2022-11-09T12:14:32.669Z,92
2022-11-09T12:15:39.284Z,92
2022-11-09T12:16:46.960Z,92
2022-11-09T12:17:53.454Z,92
2022-11-09T12:19:00.566Z,91
2022-11-09T12:20:07.120Z,91
2022-11-09T12:21:14.291Z,91
2022-11-09T12:22:21.276Z,91
2022-11-09T12:23:28.503Z,91
2022-11-09T12:24:35.624Z,91
2022-11-09T12:25:42.147Z,91
2022-11-09T12:27:04.774Z,91
2022-11-09T12:27:56.688Z,91
2022-11-09T12:29:03.386Z,92
2022-11-09T12:30:11.079Z,92
2022-11-09T12:31:17.675Z,92
2022-11-09T12:32:24.239Z,92
2022-11-09T12:33:35.436Z,92
2022-11-09T12:34:38.538Z,92
2022-11-09T12:35:45.744Z,92
2022-11-09T12:36:52.174Z,92
2022-11-09T12:37:59.372Z,93
2022-11-09T12:40:13.513Z,94
2022-11-09T12:41:20.583Z,94
2022-11-09T12:42:27.208Z,94
2022-11-09T12:43:34.329Z,95
2022-11-09T12:45:48.503Z,93
2022-11-09T12:46:55.620Z,93
2022-11-09T12:48:02.265Z,93
2022-11-09T12:49:09.257Z,93
2022-11-09T12:50:16.349Z,93
2022-11-09T12:51:23.481Z,93
2022-11-09T12:52:30.614Z,93
2022-11-09T12:53:37.347Z,93
2022-11-09T12:54:44.328Z,93
2022-11-09T12:55:51.425Z,93
2022-11-09T12:56:58.569Z,93
2022-11-09T12:58:05.782Z,93
2022-11-09T12:59:12.119Z,93
2022-11-09T13:00:20.371Z,92
2022-11-09T13:01:26.821Z,92
2022-11-09T13:02:33.547Z,92
2022-11-09T13:03:40.548Z,91
2022-11-09T13:04:47.437Z,91
2022-11-09T13:05:58.523Z,91
2022-11-09T13:07:01.464Z,91
2022-11-09T13:08:08.584Z,91
2022-11-09T13:09:15.706Z,91
2022-11-09T13:10:22.222Z,92
2022-11-09T13:11:29.915Z,92
2022-11-09T13:13:43.565Z,92
2022-11-09T13:14:50.654Z,92
2022-11-09T13:15:57.302Z,92
2022-11-09T13:17:04.291Z,92
2022-11-09T13:18:11.349Z,92
2022-11-09T13:19:18.546Z,92
2022-11-09T13:20:52.918Z,92
2022-11-09T13:21:32.149Z,92
2022-11-09T13:22:39.542Z,92
2022-11-09T13:24:02.050Z,92
2022-11-09T13:24:53.563Z,92
2022-11-09T13:26:00.658Z,92
2022-11-09T13:27:07.309Z,92
2022-11-09T13:28:14.424Z,92
2022-11-09T13:29:21.437Z,92
2022-11-09T13:31:35.682Z,92
2022-11-09T13:32:42.159Z,92
2022-11-09T13:33:49.809Z,92
2022-11-09T13:34:56.538Z,92
2022-11-09T13:36:03.611Z,91
2022-11-09T13:37:10.171Z,92
2022-11-09T13:38:17.409Z,92
2022-11-09T13:39:24.317Z,92
2022-11-09T13:41:38.491Z,92
2022-11-09T13:43:52.229Z,91
2022-11-09T13:44:59.317Z,92
2022-11-09T13:46:06.431Z,92
2022-11-09T13:47:13.743Z,91
2022-11-09T13:48:20.587Z,91
2022-11-09T13:49:27.291Z,91
2022-11-09T13:50:34.427Z,90
2022-11-09T13:51:41.498Z,90
2022-11-09T13:52:49.113Z,89
2022-11-09T13:53:55.200Z,88
2022-11-09T13:55:02.268Z,88
2022-11-09T13:56:09.384Z,88
2022-11-09T13:57:16.899Z,89
2022-11-09T13:58:23.675Z,89
2022-11-09T13:59:30.176Z,90
2022-11-09T14:00:37.305Z,90
2022-11-09T14:01:44.495Z,90
2022-11-09T14:02:51.497Z,90
2022-11-09T14:03:59.123Z,90
2022-11-09T14:05:05.196Z,90
2022-11-09T14:06:12.342Z,91
2022-11-09T14:07:19.889Z,91
2022-11-09T14:08:26.447Z,91
2022-11-09T14:09:33.594Z,91
2022-11-09T14:10:40.146Z,91
2022-11-09T14:11:47.307Z,91
2022-11-09T14:12:54.424Z,91
2022-11-09T14:14:03.288Z,91
2022-11-09T14:15:08.113Z,91
2022-11-09T14:16:15.240Z,91
2022-11-09T14:17:22.398Z,91
2022-11-09T14:18:29.404Z,91
2022-11-09T14:19:36.511Z,91
2022-11-09T14:20:43.583Z,91
2022-11-09T14:21:50.224Z,91
2022-11-09T14:22:57.393Z,90
2022-11-09T14:24:04.454Z,91
2022-11-09T14:25:11.523Z,91
2022-11-09T14:26:18.646Z,91
2022-11-09T14:27:25.193Z,91
2022-11-09T14:28:32.315Z,91
2022-11-09T14:29:39.388Z,91
2022-11-09T14:30:46.555Z,91
2022-11-09T14:31:53.626Z,91
2022-11-09T14:33:00.190Z,91
2022-11-09T14:35:14.400Z,91
2022-11-09T14:36:21.525Z,91
2022-11-09T14:37:28.693Z,91
2022-11-09T14:38:35.242Z,91
2022-11-09T14:39:42.331Z,91
2022-11-09T14:40:49.497Z,91
2022-11-09T14:41:56.488Z,91
2022-11-09T14:43:03.201Z,91
2022-11-09T14:44:10.258Z,91
2022-11-09T14:45:17.374Z,91
2022-11-09T14:47:31.684Z,90
2022-11-09T14:48:40.824Z,90
2022-11-09T14:49:45.249Z,90
2022-11-09T14:50:52.283Z,90
2022-11-09T14:51:59.522Z,90
2022-11-09T14:53:06.619Z,90
2022-11-09T14:54:13.130Z,89
2022-11-09T14:55:20.263Z,89
2022-11-09T14:56:27.364Z,89
2022-11-09T14:57:34.488Z,89
2022-11-09T14:59:48.178Z,89
2022-11-09T15:00:55.285Z,88
2022-11-09T15:02:02.370Z,88
2022-11-09T15:03:09.661Z,88
2022-11-09T15:04:16.574Z,88
2022-11-09T15:05:23.171Z,88
2022-11-09T15:06:30.293Z,87
2022-11-09T15:07:37.413Z,87
2022-11-09T15:08:44.559Z,87
2022-11-09T15:09:51.503Z,87
2022-11-09T15:12:05.327Z,86
2022-11-09T15:13:12.427Z,86
2022-11-09T15:14:19.437Z,85
2022-11-09T15:16:33.091Z,84
2022-11-09T15:17:40.366Z,84
2022-11-09T15:18:47.351Z,84
2022-11-09T15:19:54.517Z,84
2022-11-09T15:21:01.515Z,84
2022-11-09T15:22:08.244Z,84
2022-11-09T15:23:15.320Z,84
2022-11-09T15:24:22.389Z,84
2022-11-09T15:25:29.456Z,84
2022-11-09T15:26:36.563Z,84
2022-11-09T15:27:43.385Z,84
2022-11-09T15:28:50.450Z,84
2022-11-09T15:29:57.425Z,84
2022-11-09T15:31:04.554Z,84
2022-11-09T15:32:11.540Z,84
2022-11-09T15:33:18.155Z,84
2022-11-09T15:34:25.349Z,84
2022-11-09T15:35:32.942Z,84
2022-11-09T15:36:43.268Z,84
2022-11-09T15:37:46.652Z,84
2022-11-09T15:40:00.274Z,84
2022-11-09T15:41:07.460Z,84
2022-11-09T15:42:14.587Z,84
2022-11-09T15:43:21.820Z,85
2022-11-09T15:44:28.238Z,85
2022-11-09T15:45:35.351Z,85
2022-11-09T15:46:42.450Z,85
2022-11-09T15:47:49.592Z,84
2022-11-09T15:48:56.063Z,84
2022-11-09T15:51:10.280Z,84
2022-11-09T15:52:17.375Z,84
2022-11-09T15:53:24.651Z,83
2022-11-09T15:54:31.167Z,83
2022-11-09T15:55:38.294Z,83
2022-11-09T15:57:52.533Z,82
2022-11-09T15:58:59.508Z,82
2022-11-09T16:00:12.603Z,82
2022-11-09T16:01:13.410Z,82
2022-11-09T16:02:20.409Z,82
2022-11-09T16:03:27.414Z,82
2022-11-09T16:04:34.609Z,82
2022-11-09T16:05:41.308Z,82
2022-11-09T16:06:48.420Z,82
2022-11-09T16:07:55.513Z,82
2022-11-09T16:09:02.373Z,81
2022-11-09T16:10:09.708Z,81
2022-11-09T16:11:16.253Z,81
2022-11-09T16:12:23.296Z,82
2022-11-09T16:13:30.416Z,82
2022-11-09T16:14:37.560Z,82
2022-11-09T16:15:44.609Z,82
2022-11-09T16:16:51.250Z,82
2022-11-09T16:17:58.400Z,82
2022-11-09T16:19:05.436Z,82
2022-11-09T16:20:12.402Z,82
2022-11-09T16:21:19.529Z,82
2022-11-09T16:22:26.124Z,82
2022-11-09T16:23:33.338Z,82
2022-11-09T16:24:40.305Z,82
2022-11-09T16:25:47.441Z,82
2022-11-09T16:28:02.179Z,82
2022-11-09T16:29:08.376Z,82
2022-11-09T16:30:15.325Z,82
2022-11-09T16:31:40.986Z,82
2022-11-09T16:32:29.649Z,81
2022-11-09T16:33:36.379Z,81
2022-11-09T16:35:50.423Z,82
2022-11-09T16:36:57.595Z,82
2022-11-09T16:39:11.228Z,81
2022-11-09T16:40:18.340Z,81
2022-11-09T16:41:25.345Z,81
2022-11-09T16:42:32.563Z,81
2022-11-09T16:43:39.216Z,81
2022-11-09T16:44:46.142Z,81
2022-11-09T16:45:53.217Z,81
2022-11-09T16:47:00.338Z,82
2022-11-09T16:48:07.704Z,81
2022-11-09T16:49:14.043Z,82
2022-11-09T16:50:21.212Z,81
2022-11-09T16:51:28.350Z,82
2022-11-09T16:52:35.348Z,82
2022-11-09T16:54:49.502Z,82
2022-11-09T16:55:56.518Z,82
2022-11-09T16:57:03.325Z,82
2022-11-09T16:58:10.594Z,82
2022-11-09T16:59:17.478Z,82
2022-11-09T17:00:27.662Z,82
2022-11-09T17:01:31.327Z,82
2022-11-09T17:03:45.979Z,82
2022-11-09T17:04:52.574Z,82
2022-11-09T17:05:59.231Z,82
2022-11-09T17:07:06.297Z,82
2022-11-09T17:08:13.408Z,82
2022-11-09T17:09:20.379Z,82
2022-11-09T17:10:27.582Z,82